»·PEaware :: N7375Q 3L2-49X

N7375Q :: 3L2-49X

FLIGHT INFORMATION

Flight Status: Arrived
Operator: Privately registered:
United States
More flights under this callsign
Pilot: Ion I. (24133)
Aircraft: SOCATA TBM-900
(TBM9)
More flights by this aircraft type
Origin: 3L2 Sky Ranch
United States
Destination: 49X Chemehuevi Valley
United States
More flights between these airports :: More routes between these airports
Route: DIRECT
File this flight plan on PilotEdge
Remarks:
Altitude:
(Current/Filed)
17,500ft
Speed:
(Current/Filed)
250kts
Departed: 31-Jul-20 04:48 PM
Arrived: 31-Jul-20 05:49 PM
Distance/Time
Traveled:
96nm/1:01
Distance/Time
To Go:
Arrived

Flight Plot

Page will automatically refresh every two minutes.


Map Options




Map Legend


Flown Route
Filed Route
Departure Airport
Arrival Airport
Navaid (VOR, NDB)
Fix

Horizontal Profiles

Position Reports

Time Latitude Longitude Heading Altitude Ground
Speed
31-Jul-20 16:47 35.797902 -115.624258 224 2586ft 98kts
31-Jul-20 16:47 35.778348 -115.643189 194 4001ft 123kts
31-Jul-20 16:48 35.747428 -115.620538 150 6128ft 147kts
31-Jul-20 16:50 35.704918 -115.578906 147 8644ft 184kts
31-Jul-20 16:50 35.671114 -115.545314 146 10346ft 191kts
31-Jul-20 16:51 35.629445 -115.503985 145 12361ft 196kts
31-Jul-20 16:52 35.586964 -115.461883 144 14368ft 196kts
31-Jul-20 16:53 35.544062 -115.419444 143 16382ft 204kts
31-Jul-20 16:54 35.497451 -115.373362 142 17524ft 241kts
31-Jul-20 16:55 35.440477 -115.317159 142 17504ft 275kts
31-Jul-20 16:56 35.379516 -115.257099 142 17521ft 283kts
31-Jul-20 16:57 35.317744 -115.196395 142 17478ft 287kts
31-Jul-20 16:58 35.254965 -115.134861 142 17379ft 289kts
31-Jul-20 16:59 35.191561 -115.072842 142 16625ft 311kts
31-Jul-20 17:00 35.122159 -115.004304 136 12640ft 323kts
31-Jul-20 17:01 35.111206 -114.904696 116 9280ft 306kts
31-Jul-20 17:02 35.051012 -114.840265 150 7317ft 271kts
31-Jul-20 17:03 34.988334 -114.790841 150 7327ft 266kts
31-Jul-20 17:04 34.925980 -114.741849 150 7345ft 262kts
31-Jul-20 17:05 34.874115 -114.708882 165 6466ft 188kts
31-Jul-20 17:06 34.822973 -114.689523 164 4447ft 195kts
31-Jul-20 17:07 34.799651 -114.677493 166 3545ft 192kts
31-Jul-20 17:08 34.768571 -114.636823 117 1174ft 173kts
31-Jul-20 17:09 34.759048 -114.615732 102 899ft 0kts
31-Jul-20 17:15 35.801275 -115.620194 224 2598ft 0kts
31-Jul-20 17:16 35.801275 -115.620194 224 2598ft 0kts
31-Jul-20 17:17 35.801275 -115.620194 224 2598ft 0kts
31-Jul-20 17:18 35.801275 -115.620194 224 2598ft 0kts
31-Jul-20 17:19 35.801275 -115.620194 224 2598ft 0kts
31-Jul-20 17:20 35.801275 -115.620194 224 2598ft 0kts
31-Jul-20 17:21 35.799906 -115.621827 223 2594ft 53kts
31-Jul-20 17:22 35.777536 -115.628404 149 3701ft 124kts
31-Jul-20 17:23 35.746354 -115.599051 150 5671ft 154kts
31-Jul-20 17:24 35.709992 -115.563841 148 7756ft 179kts
31-Jul-20 17:25 35.669865 -115.524689 147 9778ft 188kts
31-Jul-20 17:26 35.628329 -115.484222 146 11771ft 194kts
31-Jul-20 17:27 35.585820 -115.442831 145 13766ft 198kts
31-Jul-20 17:28 35.541920 -115.400167 144 15770ft 205kts
31-Jul-20 17:29 35.496643 -115.356203 144 17499ft 218kts
31-Jul-20 17:30 35.442762 -115.303929 143 17463ft 268kts
31-Jul-20 17:31 35.382213 -115.245341 143 17410ft 283kts
31-Jul-20 17:32 35.319809 -115.185111 143 17384ft 286kts
31-Jul-20 17:33 35.257110 -115.124713 143 17363ft 287kts
31-Jul-20 17:34 35.194250 -115.064282 143 17342ft 287kts
31-Jul-20 17:35 35.131476 -115.004059 143 17322ft 286kts
31-Jul-20 17:36 35.068645 -114.943900 143 16914ft 293kts
31-Jul-20 17:37 35.002924 -114.881082 143 14924ft 307kts
31-Jul-20 17:38 34.934762 -114.816076 143 12926ft 313kts
31-Jul-20 17:39 34.865933 -114.750604 144 10916ft 313kts
31-Jul-20 17:40 34.798757 -114.685460 132 8900ft 308kts
31-Jul-20 17:41 34.745767 -114.605282 130 6910ft 300kts
31-Jul-20 17:42 34.694850 -114.527953 130 4906ft 268kts
31-Jul-20 17:43 34.652802 -114.462691 130 3297ft 224kts
31-Jul-20 17:44 34.610527 -114.431068 182 2323ft 140kts
31-Jul-20 17:45 34.584219 -114.431253 190 1704ft 124kts
31-Jul-20 17:46 34.556299 -114.431846 190 1213ft 94kts
31-Jul-20 17:47 34.530088 -114.431958 178 624ft 76kts
31-Jul-20 17:48 34.522150 -114.431823 128 624ft 14kts
31-Jul-20 17:49 34.525226 -114.430964 359 622ft 10kts
31-Jul-20 17:50 34.528887 -114.430831 50 622ft 14kts
31-Jul-20 17:51 34.529322 -114.430438 269 621ft 0kts
31-Jul-20 17:52 34.529322 -114.430438 269 621ft 0kts
31-Jul-20 17:53 34.529322 -114.430438 269 621ft 0kts
31-Jul-20 17:54 34.529322 -114.430438 269 621ft 0kts
31-Jul-20 17:55 34.529322 -114.430438 269 621ft 0kts
31-Jul-20 17:56 34.529322 -114.430438 269 621ft 0kts
31-Jul-20 17:57 34.529322 -114.430438 269 621ft 0kts
31-Jul-20 17:58 34.529322 -114.430438 269 621ft 0kts
31-Jul-20 17:59 34.529322 -114.430438 269 621ft 0kts
31-Jul-20 18:00 34.529322 -114.430438 269 621ft 0kts
31-Jul-20 18:01 34.529322 -114.430438 269 621ft 0kts
31-Jul-20 18:02 34.529322 -114.430438 269 621ft 0kts

Navigation Log

Ident Type
Flight plan parsing failed, navigation log unavailable